createdAt,value
2019-05-16T00:00:02.153Z,3
2019-05-16T00:05:01.758Z,3
2019-05-16T00:10:01.587Z,2
2019-05-16T00:15:01.775Z,1
2019-05-16T00:20:02.241Z,2
2019-05-16T00:25:01.608Z,2
2019-05-16T00:30:01.975Z,2
2019-05-16T00:35:01.297Z,2
2019-05-16T00:40:02.201Z,2
2019-05-16T00:45:01.601Z,1
2019-05-16T00:50:01.977Z,2
2019-05-16T00:55:01.294Z,2
2019-05-16T01:00:01.610Z,2
2019-05-16T01:05:02.266Z,3
2019-05-16T01:10:02.024Z,2
2019-05-16T01:15:02.323Z,1
2019-05-16T01:20:01.752Z,1
2019-05-16T01:25:02.116Z,2
2019-05-16T01:30:01.463Z,2
2019-05-16T01:35:02.083Z,3
2019-05-16T01:40:01.891Z,2
2019-05-16T01:45:02.235Z,2
2019-05-16T01:50:01.633Z,2
2019-05-16T01:55:02.003Z,2
2019-05-16T02:00:01.350Z,2
2019-05-16T02:05:02.014Z,2
2019-05-16T02:10:01.810Z,1
2019-05-16T02:15:02.010Z,2
2019-05-16T02:20:01.503Z,3
2019-05-16T02:25:01.885Z,2
2019-05-16T02:30:02.312Z,1
2019-05-16T02:35:01.658Z,3
2019-05-16T02:40:01.918Z,3
2019-05-16T02:45:02.304Z,2
2019-05-16T02:50:02.184Z,2
2019-05-16T02:55:01.542Z,3
2019-05-16T03:00:02.392Z,1
2019-05-16T03:05:02.152Z,2
2019-05-16T03:10:02.252Z,3
2019-05-16T03:15:02.782Z,1
2019-05-16T03:20:01.654Z,2
2019-05-16T03:25:02.189Z,2
2019-05-16T03:30:02.278Z,2
2019-05-16T03:35:04.924Z,3
2019-05-16T03:40:01.624Z,1
2019-05-16T03:45:02.474Z,1
2019-05-16T03:50:01.931Z,2
2019-05-16T03:55:02.350Z,2
2019-05-16T04:00:01.692Z,2
2019-05-16T04:05:02.137Z,0
2019-05-16T04:10:02.528Z,2
2019-05-16T04:15:02.082Z,2
2019-05-16T04:20:02.498Z,1
2019-05-16T04:25:02.239Z,2
2019-05-16T04:30:02.267Z,1
2019-05-16T04:35:02.613Z,2
2019-05-16T04:40:01.989Z,1
2019-05-16T04:45:01.533Z,3
2019-05-16T04:50:02.093Z,32
2019-05-16T04:55:01.537Z,32
2019-05-16T05:00:02.790Z,26
2019-05-16T05:05:01.554Z,27
2019-05-16T05:10:01.568Z,25
2019-05-16T05:15:01.792Z,28
2019-05-16T05:20:02.254Z,28
2019-05-16T05:25:01.646Z,29
2019-05-16T05:30:02.000Z,30
2019-05-16T05:35:01.400Z,24
2019-05-16T05:40:02.278Z,17
2019-05-16T05:45:01.656Z,15
2019-05-16T05:50:02.010Z,13
2019-05-16T05:55:01.403Z,10
2019-05-16T06:00:01.715Z,9
2019-05-16T06:05:01.324Z,9
2019-05-16T06:10:02.085Z,9
2019-05-16T06:15:08.296Z,9
2019-05-16T06:20:01.711Z,10
2019-05-16T06:25:02.110Z,9
2019-05-16T06:30:01.512Z,9
2019-05-16T06:35:01.891Z,10
2019-05-16T06:40:01.726Z,10
2019-05-16T06:45:02.121Z,10
2019-05-16T06:50:01.488Z,10
2019-05-16T06:55:01.841Z,10
2019-05-16T07:00:02.142Z,8
2019-05-16T07:05:01.828Z,13
2019-05-16T07:10:04.472Z,4
2019-05-16T07:15:02.379Z,2
2019-05-16T07:20:01.893Z,2
2019-05-16T07:25:02.271Z,1
2019-05-16T07:30:01.622Z,1
2019-05-16T07:35:02.578Z,1
2019-05-16T07:40:16.169Z,2
2019-05-16T07:45:01.929Z,1
2019-05-16T07:50:02.310Z,2
2019-05-16T07:55:03.932Z,1
2019-05-16T08:00:01.527Z,1
2019-05-16T08:05:02.203Z,1
2019-05-16T08:10:01.977Z,0
2019-05-16T08:15:02.258Z,10
2019-05-16T08:20:01.829Z,18
2019-05-16T08:25:02.241Z,15
2019-05-16T08:30:02.682Z,16
2019-05-16T08:35:02.226Z,11
2019-05-16T08:40:01.964Z,11
2019-05-16T08:45:02.095Z,10
2019-05-16T08:50:02.255Z,7
2019-05-16T08:55:03.553Z,7
2019-05-16T09:00:02.054Z,8
2019-05-16T09:05:05.006Z,6
2019-05-16T09:10:01.749Z,4
2019-05-16T09:15:01.971Z,3
2019-05-16T09:20:01.437Z,3
2019-05-16T09:25:01.807Z,3
2019-05-16T09:30:02.188Z,3
2019-05-16T09:35:01.554Z,3
2019-05-16T09:40:01.355Z,3
2019-05-16T09:45:01.722Z,3
2019-05-16T09:50:02.113Z,1
2019-05-16T09:55:01.464Z,2
2019-05-16T10:00:01.795Z,2
2019-05-16T10:05:01.443Z,2
2019-05-16T10:10:02.251Z,2
2019-05-16T10:15:01.475Z,3
2019-05-16T10:20:01.418Z,2
2019-05-16T10:25:01.804Z,2
2019-05-16T10:30:02.365Z,2
2019-05-16T10:35:01.894Z,2
2019-05-16T10:40:01.640Z,3
2019-05-16T10:45:02.035Z,2
2019-05-16T10:50:01.409Z,2
2019-05-16T10:55:02.732Z,1
2019-05-16T11:00:13.081Z,1
2019-05-16T11:05:20.626Z,1
2019-05-16T11:10:03.583Z,1
2019-05-16T11:15:01.955Z,2
2019-05-16T11:20:01.391Z,2
2019-05-16T11:25:01.741Z,1
2019-05-16T11:30:02.115Z,0
2019-05-16T11:35:01.483Z,3
2019-05-16T11:40:02.256Z,1
2019-05-16T11:45:01.888Z,2
2019-05-16T11:50:02.272Z,2
2019-05-16T11:55:01.620Z,0
2019-05-16T12:00:01.966Z,1
2019-05-16T12:05:01.637Z,1
2019-05-16T12:10:01.423Z,0
2019-05-16T12:15:01.638Z,1
2019-05-16T12:20:02.142Z,2
2019-05-16T12:25:01.526Z,0
2019-05-16T12:30:02.170Z,2
2019-05-16T12:35:01.705Z,2
2019-05-16T12:40:01.572Z,1
2019-05-16T12:45:01.984Z,1
2019-05-16T12:50:01.370Z,1
2019-05-16T12:55:01.957Z,2
2019-05-16T13:00:01.495Z,1
2019-05-16T13:05:02.228Z,1
2019-05-16T13:10:02.110Z,3
2019-05-16T13:15:02.304Z,2
2019-05-16T13:20:01.980Z,1
2019-05-16T13:25:01.425Z,1
2019-05-16T13:30:01.891Z,1
2019-05-16T13:35:02.290Z,3
2019-05-16T13:40:02.073Z,3
2019-05-16T13:45:01.404Z,4
2019-05-16T13:50:02.075Z,5
2019-05-16T13:55:01.660Z,6
2019-05-16T14:00:02.001Z,8
2019-05-16T14:05:01.621Z,8
2019-05-16T14:10:01.400Z,11
2019-05-16T14:15:01.620Z,11
2019-05-16T14:20:02.243Z,10
2019-05-16T14:25:01.736Z,12
2019-05-16T14:30:02.264Z,12
2019-05-16T14:35:01.773Z,11
2019-05-16T14:40:02.015Z,10
2019-05-16T14:45:11.234Z,10
2019-05-16T14:50:02.500Z,9
2019-05-16T14:55:02.296Z,12
2019-05-16T15:00:01.705Z,10
2019-05-16T15:05:01.406Z,12
2019-05-16T15:10:02.251Z,12
2019-05-16T15:15:15.649Z,13
2019-05-16T15:20:01.783Z,11
2019-05-16T15:25:02.393Z,12
2019-05-16T15:30:01.742Z,13
2019-05-16T15:35:02.107Z,13
2019-05-16T15:40:01.950Z,12
2019-05-16T15:45:02.327Z,12
2019-05-16T15:50:01.693Z,12
2019-05-16T15:55:02.155Z,10
2019-05-16T16:00:01.590Z,10
2019-05-16T16:05:02.236Z,9
2019-05-16T16:10:02.019Z,9
2019-05-16T16:15:02.247Z,7
2019-05-16T16:20:01.822Z,7
2019-05-16T16:25:02.466Z,7
2019-05-16T16:30:01.815Z,8
2019-05-16T16:35:02.175Z,7
2019-05-16T16:40:02.146Z,7
2019-05-16T16:45:01.633Z,6
2019-05-16T16:50:02.024Z,7
2019-05-16T16:55:01.536Z,7
2019-05-16T17:00:01.940Z,8
2019-05-16T17:05:02.756Z,8
2019-05-16T17:10:01.848Z,8
2019-05-16T17:15:02.138Z,9
2019-05-16T17:20:01.642Z,8
2019-05-16T17:25:02.101Z,9
2019-05-16T17:30:01.563Z,9
2019-05-16T17:35:01.918Z,9
2019-05-16T17:40:01.770Z,11
2019-05-16T17:45:02.128Z,10
2019-05-16T17:50:01.529Z,9
2019-05-16T17:55:02.001Z,12
2019-05-16T18:00:01.378Z,10
2019-05-16T18:05:02.036Z,16
2019-05-16T18:10:01.835Z,3
2019-05-16T18:15:02.087Z,2
2019-05-16T18:20:01.533Z,3
2019-05-16T18:25:01.888Z,2
2019-05-16T18:30:02.257Z,2
2019-05-16T18:35:01.706Z,2
2019-05-16T18:40:01.503Z,2
2019-05-16T18:45:01.888Z,3
2019-05-16T18:50:02.287Z,2
2019-05-16T18:55:01.659Z,2
2019-05-16T19:00:01.970Z,2
2019-05-16T19:05:01.612Z,1
2019-05-16T19:10:01.354Z,2
2019-05-16T19:15:01.617Z,2
2019-05-16T19:20:02.109Z,2
2019-05-16T19:25:01.467Z,1
2019-05-16T19:30:01.896Z,2
2019-05-16T19:35:02.263Z,2
2019-05-16T19:40:02.046Z,2
2019-05-16T19:45:01.670Z,0
2019-05-16T19:50:02.062Z,2
2019-05-16T19:55:01.370Z,0
2019-05-16T20:00:01.716Z,0
2019-05-16T20:05:01.327Z,1
2019-05-16T20:10:02.114Z,2
2019-05-16T20:15:08.065Z,1
2019-05-16T20:20:01.818Z,1
2019-05-16T20:25:02.206Z,1
2019-05-16T20:30:01.530Z,3
2019-05-16T20:35:01.888Z,0
2019-05-16T20:40:01.639Z,1
2019-05-16T20:45:02.018Z,1
2019-05-16T20:50:01.498Z,1
2019-05-16T20:55:01.860Z,1
2019-05-16T21:00:02.188Z,2
2019-05-16T21:05:01.822Z,1
2019-05-16T21:10:01.555Z,1
2019-05-16T21:15:01.842Z,1
2019-05-16T21:20:02.304Z,2
2019-05-16T21:25:01.659Z,2
2019-05-16T21:30:02.113Z,1
2019-05-16T21:35:01.421Z,2
2019-05-16T21:40:02.225Z,2
2019-05-16T21:45:01.568Z,1
2019-05-16T21:50:01.989Z,1
2019-05-16T21:55:01.358Z,2
2019-05-16T22:00:01.761Z,2
2019-05-16T22:05:01.394Z,1
2019-05-16T22:10:02.156Z,1
2019-05-16T22:15:01.408Z,3
2019-05-16T22:20:02.133Z,3
2019-05-16T22:25:01.336Z,2
2019-05-16T22:30:02.127Z,6
2019-05-16T22:35:01.765Z,9
2019-05-16T22:40:01.570Z,10
2019-05-16T22:45:01.936Z,8
2019-05-16T22:50:02.291Z,9
2019-05-16T22:55:01.602Z,7
2019-05-16T23:00:01.906Z,9
2019-05-16T23:05:01.533Z,9
2019-05-16T23:10:01.335Z,9
2019-05-16T23:15:01.571Z,9
2019-05-16T23:20:02.033Z,11
2019-05-16T23:25:01.347Z,14
2019-05-16T23:30:01.682Z,16
2019-05-16T23:35:02.036Z,14
2019-05-16T23:40:01.825Z,19
2019-05-16T23:45:02.328Z,21
2019-05-16T23:50:01.671Z,22
2019-05-16T23:55:02.025Z,26
